sensor_id;sensor_type;location;lat;lon;timestamp;pressure;altitude;pressure_sealevel;temperature;humidity
79000;BME280;68406;53.914;27.416;2023-07-09T00:02:30;989.4;;;16.5;56.3
79000;BME280;68406;53.914;27.416;2023-07-09T00:07:21;989.4;;;16.4;56.6
79000;BME280;68406;53.914;27.416;2023-07-09T00:12:17;989.4;;;16.3;56.9
79000;BME280;68406;53.914;27.416;2023-07-09T00:17:18;989.4;;;16.2;57.2
79000;BME280;68406;53.914;27.416;2023-07-09T00:23:04;989.3;;;16.1;57.4
79000;BME280;68406;53.914;27.416;2023-07-09T00:27:47;989.3;;;16.1;57.7
79000;BME280;68406;53.914;27.416;2023-07-09T00:32:17;989.3;;;16;57.9
79000;BME280;68406;53.914;27.416;2023-07-09T00:37:28;989.3;;;15.9;58.3
79000;BME280;68406;53.914;27.416;2023-07-09T00:42:42;989.3;;;15.9;58.3
79000;BME280;68406;53.914;27.416;2023-07-09T00:47:21;989.3;;;15.8;58.5
79000;BME280;68406;53.914;27.416;2023-07-09T00:52:40;989.3;;;15.8;58.7
79000;BME280;68406;53.914;27.416;2023-07-09T00:58:00;989.3;;;15.7;59
79000;BME280;68406;53.914;27.416;2023-07-09T01:02:46;989.3;;;15.7;59.2
79000;BME280;68406;53.914;27.416;2023-07-09T01:07:46;989.3;;;15.6;59.4
79000;BME280;68406;53.914;27.416;2023-07-09T01:12:39;989.3;;;15.6;59.6
79000;BME280;68406;53.914;27.416;2023-07-09T01:17:25;989.3;;;15.5;59.9
79000;BME280;68406;53.914;27.416;2023-07-09T01:22:25;989.3;;;15.5;60
79000;BME280;68406;53.914;27.416;2023-07-09T01:28:04;989.2;;;15.5;60
79000;BME280;68406;53.914;27.416;2023-07-09T01:32:30;989.3;;;15.5;60.2
79000;BME280;68406;53.914;27.416;2023-07-09T01:37:46;989.3;;;15.5;60.5
79000;BME280;68406;53.914;27.416;2023-07-09T01:42:39;989.3;;;15.4;60.8
79000;BME280;68406;53.914;27.416;2023-07-09T01:47:44;989.4;;;15.4;61
79000;BME280;68406;53.914;27.416;2023-07-09T01:52:25;989.4;;;15.4;61.2
79000;BME280;68406;53.914;27.416;2023-07-09T01:57:54;989.5;;;15.4;61.2
79000;BME280;68406;53.914;27.416;2023-07-09T02:03:03;989.4;;;15.5;61.3
79000;BME280;68406;53.914;27.416;2023-07-09T02:07:47;989.5;;;15.5;61.3
79000;BME280;68406;53.914;27.416;2023-07-09T02:12:55;989.5;;;15.6;61.3
79000;BME280;68406;53.914;27.416;2023-07-09T02:18:03;989.4;;;15.6;61.4
79000;BME280;68406;53.914;27.416;2023-07-09T02:22:16;989.5;;;15.7;61.4
79000;BME280;68406;53.914;27.416;2023-07-09T02:27:39;989.6;;;15.9;61.8
79000;BME280;68406;53.914;27.416;2023-07-09T02:32:25;989.6;;;16;61.7
79000;BME280;68406;53.914;27.416;2023-07-09T02:38:05;989.6;;;16.1;61.7
79000;BME280;68406;53.914;27.416;2023-07-09T02:42:49;989.6;;;16.2;62.2
79000;BME280;68406;53.914;27.416;2023-07-09T02:47:55;989.6;;;16.2;62.1
79000;BME280;68406;53.914;27.416;2023-07-09T02:52:39;989.7;;;16.3;62.2
79000;BME280;68406;53.914;27.416;2023-07-09T02:57:25;989.7;;;16.4;62
79000;BME280;68406;53.914;27.416;2023-07-09T03:03:05;989.7;;;16.5;61.9
79000;BME280;68406;53.914;27.416;2023-07-09T03:07:17;989.7;;;16.6;61.9
79000;BME280;68406;53.914;27.416;2023-07-09T03:13:05;989.8;;;16.7;61.6
79000;BME280;68406;53.914;27.416;2023-07-09T03:17:47;989.8;;;16.8;61.5
79000;BME280;68406;53.914;27.416;2023-07-09T03:23:05;989.8;;;16.9;61.2
79000;BME280;68406;53.914;27.416;2023-07-09T03:27:39;989.8;;;16.9;61.4
79000;BME280;68406;53.914;27.416;2023-07-09T03:32:31;989.8;;;17;61.3
79000;BME280;68406;53.914;27.416;2023-07-09T03:37:49;989.8;;;17.1;61.5
79000;BME280;68406;53.914;27.416;2023-07-09T03:42:41;989.8;;;17.2;61.4
79000;BME280;68406;53.914;27.416;2023-07-09T03:47:17;989.8;;;17.4;61.4
79000;BME280;68406;53.914;27.416;2023-07-09T03:52:31;989.8;;;17.4;61.5
79000;BME280;68406;53.914;27.416;2023-07-09T03:58:03;989.7;;;17.4;61.7
79000;BME280;68406;53.914;27.416;2023-07-09T04:02:17;989.7;;;17.5;61.9
79000;BME280;68406;53.914;27.416;2023-07-09T04:07:17;989.7;;;17.6;61.8
79000;BME280;68406;53.914;27.416;2023-07-09T04:13:05;989.7;;;17.7;61.5
79000;BME280;68406;53.914;27.416;2023-07-09T04:17:49;989.7;;;17.8;61.4
79000;BME280;68406;53.914;27.416;2023-07-09T04:22:31;989.7;;;17.9;61.2
79000;BME280;68406;53.914;27.416;2023-07-09T04:27:35;989.7;;;18.1;60.9
79000;BME280;68406;53.914;27.416;2023-07-09T04:32:47;989.7;;;18.2;60.5
79000;BME280;68406;53.914;27.416;2023-07-09T04:37:17;989.7;;;18.2;60
79000;BME280;68406;53.914;27.416;2023-07-09T04:42:17;989.7;;;18.3;59.8
79000;BME280;68406;53.914;27.416;2023-07-09T04:48:03;989.8;;;18.4;59.5
79000;BME280;68406;53.914;27.416;2023-07-09T04:52:47;989.8;;;18.4;58.6
79000;BME280;68406;53.914;27.416;2023-07-09T04:57:25;989.8;;;18.5;58.3
79000;BME280;68406;53.914;27.416;2023-07-09T05:02:25;989.8;;;18.6;57.9
79000;BME280;68406;53.914;27.416;2023-07-09T05:07:39;989.7;;;18.7;57
79000;BME280;68406;53.914;27.416;2023-07-09T05:12:25;989.8;;;18.7;56.1
79000;BME280;68406;53.914;27.416;2023-07-09T05:17:39;989.7;;;18.7;55.7
79000;BME280;68406;53.914;27.416;2023-07-09T05:22:55;989.8;;;18.7;55.3
79000;BME280;68406;53.914;27.416;2023-07-09T05:27:39;989.7;;;18.8;55
79000;BME280;68406;53.914;27.416;2023-07-09T05:32:47;989.8;;;18.8;54.9
79000;BME280;68406;53.914;27.416;2023-07-09T05:37:47;989.8;;;18.8;54
79000;BME280;68406;53.914;27.416;2023-07-09T05:42:25;989.8;;;18.9;53.7
79000;BME280;68406;53.914;27.416;2023-07-09T05:47:25;989.7;;;18.9;53.6
79000;BME280;68406;53.914;27.416;2023-07-09T05:53:03;989.8;;;19;53.5
79000;BME280;68406;53.914;27.416;2023-07-09T05:58:03;989.7;;;19;53.4
79000;BME280;68406;53.914;27.416;2023-07-09T06:03:03;989.7;;;19.1;53.1
79000;BME280;68406;53.914;27.416;2023-07-09T06:08:03;989.7;;;19.2;53.1
79000;BME280;68406;53.914;27.416;2023-07-09T06:12:25;989.8;;;19.3;52.9
79000;BME280;68406;53.914;27.416;2023-07-09T06:17:31;989.7;;;19.5;52.6
79000;BME280;68406;53.914;27.416;2023-07-09T06:22:41;989.7;;;19.6;52.1
79000;BME280;68406;53.914;27.416;2023-07-09T06:28:03;989.7;;;19.6;52.1
79000;BME280;68406;53.914;27.416;2023-07-09T06:32:47;989.7;;;19.8;51.9
79000;BME280;68406;53.914;27.416;2023-07-09T06:37:53;989.7;;;19.9;51.1
79000;BME280;68406;53.914;27.416;2023-07-09T06:43:03;989.6;;;19.9;50.6
79000;BME280;68406;53.914;27.416;2023-07-09T06:47:17;989.6;;;20;49.7
79000;BME280;68406;53.914;27.416;2023-07-09T06:52:31;989.7;;;20.1;49.1
79000;BME280;68406;53.914;27.416;2023-07-09T06:57:39;989.6;;;20.2;48.4
79000;BME280;68406;53.914;27.416;2023-07-09T07:03:03;989.7;;;20.3;47.7
79000;BME280;68406;53.914;27.416;2023-07-09T07:07:47;989.5;;;20.3;47
79000;BME280;68406;53.914;27.416;2023-07-09T07:12:55;989.5;;;20.4;46.7
79000;BME280;68406;53.914;27.416;2023-07-09T07:17:39;989.6;;;20.6;46.3
79000;BME280;68406;53.914;27.416;2023-07-09T07:22:17;989.6;;;20.7;45.6
79000;BME280;68406;53.914;27.416;2023-07-09T07:28:03;989.4;;;20.8;45.4
79000;BME280;68406;53.914;27.416;2023-07-09T07:32:57;989.5;;;20.9;45
79000;BME280;68406;53.914;27.416;2023-07-09T07:37:31;989.6;;;20.9;44.3
79000;BME280;68406;53.914;27.416;2023-07-09T07:43:03;989.5;;;20.9;43.6
79000;BME280;68406;53.914;27.416;2023-07-09T07:48:03;989.6;;;21;43
79000;BME280;68406;53.914;27.416;2023-07-09T07:52:17;989.5;;;21;42.7
79000;BME280;68406;53.914;27.416;2023-07-09T07:57:17;989.5;;;21.1;42.5
79000;BME280;68406;53.914;27.416;2023-07-09T08:02:19;989.5;;;21.2;42.4
79000;BME280;68406;53.914;27.416;2023-07-09T08:07:39;989.5;;;21.3;42.5
79000;BME280;68406;53.914;27.416;2023-07-09T08:12:17;989.4;;;21.3;42.1
79000;BME280;68406;53.914;27.416;2023-07-09T08:17:17;989.4;;;21.4;42
79000;BME280;68406;53.914;27.416;2023-07-09T08:23:03;989.4;;;21.5;42.2
79000;BME280;68406;53.914;27.416;2023-07-09T08:27:25;989.3;;;21.7;41.8
79000;BME280;68406;53.914;27.416;2023-07-09T08:32:17;989.3;;;21.7;41.5
79000;BME280;68406;53.914;27.416;2023-07-09T08:38:03;989.3;;;21.8;41.6
79000;BME280;68406;53.914;27.416;2023-07-09T08:42:49;989.3;;;21.8;41.5
79000;BME280;68406;53.914;27.416;2023-07-09T08:47:33;989.4;;;22.1;41
79000;BME280;68406;53.914;27.416;2023-07-09T08:52:40;989.3;;;22.3;40.3
79000;BME280;68406;53.914;27.416;2023-07-09T08:57:47;989.3;;;22.4;39.8
79000;BME280;68406;53.914;27.416;2023-07-09T09:02:28;989.2;;;22.4;39.1
79000;BME280;68406;53.914;27.416;2023-07-09T09:07:26;989.1;;;22.4;39.2
79000;BME280;68406;53.914;27.416;2023-07-09T09:13:05;989;;;22.5;39.2
79000;BME280;68406;53.914;27.416;2023-07-09T09:17:48;989.1;;;22.6;38.9
79000;BME280;68406;53.914;27.416;2023-07-09T09:22:33;989.1;;;22.8;38.5
79000;BME280;68406;53.914;27.416;2023-07-09T09:27:25;989.1;;;22.9;38.5
79000;BME280;68406;53.914;27.416;2023-07-09T09:32:26;989;;;23;37.9
79000;BME280;68406;53.914;27.416;2023-07-09T09:37:22;989;;;23.2;36.9
79000;BME280;68406;53.914;27.416;2023-07-09T09:42:17;989;;;23.5;36.5
79000;BME280;68406;53.914;27.416;2023-07-09T09:47:58;989;;;23.7;36.5
79000;BME280;68406;53.914;27.416;2023-07-09T09:52:47;989;;;23.7;36.5
79000;BME280;68406;53.914;27.416;2023-07-09T09:57:47;988.9;;;24;35.3
79000;BME280;68406;53.914;27.416;2023-07-09T10:02:25;988.9;;;24;35.2
79000;BME280;68406;53.914;27.416;2023-07-09T10:07:19;989;;;24.4;35.2
79000;BME280;68406;53.914;27.416;2023-07-09T10:12:42;989;;;24.5;34.8
79000;BME280;68406;53.914;27.416;2023-07-09T10:18:06;988.8;;;24.7;34.2
79000;BME280;68406;53.914;27.416;2023-07-09T10:23:09;988.9;;;24.8;33.8
79000;BME280;68406;53.914;27.416;2023-07-09T10:28:11;988.8;;;25.2;33.6
79000;BME280;68406;53.914;27.416;2023-07-09T10:32:50;988.9;;;25.6;33.2
79000;BME280;68406;53.914;27.416;2023-07-09T10:38:08;988.8;;;26.6;32
79000;BME280;68406;53.914;27.416;2023-07-09T10:42:40;988.7;;;28.1;29.8
79000;BME280;68406;53.914;27.416;2023-07-09T10:47:42;988.7;;;30;28
79000;BME280;68406;53.914;27.416;2023-07-09T10:53:05;988.7;;;32.2;26
79000;BME280;68406;53.914;27.416;2023-07-09T10:57:48;988.5;;;34.4;23.9
79000;BME280;68406;53.914;27.416;2023-07-09T11:02:58;988.4;;;36.1;21.2
79000;BME280;68406;53.914;27.416;2023-07-09T11:08:04;988.6;;;37.5;19.8
79000;BME280;68406;53.914;27.416;2023-07-09T11:12:32;988.5;;;38.4;18.6
79000;BME280;68406;53.914;27.416;2023-07-09T11:17:25;988.4;;;39.2;17.6
79000;BME280;68406;53.914;27.416;2023-07-09T11:22:39;988.4;;;41.1;16.2
79000;BME280;68406;53.914;27.416;2023-07-09T11:37:47;988.3;;;45.9;12.2
79000;BME280;68406;53.914;27.416;2023-07-09T11:42:26;988.2;;;46.1;11.6
79000;BME280;68406;53.914;27.416;2023-07-09T11:47:24;988.1;;;47.1;10.8
79000;BME280;68406;53.914;27.416;2023-07-09T11:52:43;988.1;;;47;10.5
79000;BME280;68406;53.914;27.416;2023-07-09T11:57:39;988.1;;;43.8;11.6
79000;BME280;68406;53.914;27.416;2023-07-09T12:02:18;988;;;43.8;11.7
79000;BME280;68406;53.914;27.416;2023-07-09T12:07:47;987.9;;;45.8;10.6
79000;BME280;68406;53.914;27.416;2023-07-09T12:13:05;987.9;;;43.2;11.9
79000;BME280;68406;53.914;27.416;2023-07-09T12:17:17;987.8;;;42.7;12
79000;BME280;68406;53.914;27.416;2023-07-09T12:22:39;987.8;;;43.5;11.8
79000;BME280;68406;53.914;27.416;2023-07-09T12:27:47;987.8;;;38.7;14.4
79000;BME280;68406;53.914;27.416;2023-07-09T12:32:42;987.7;;;35.8;16.6
79000;BME280;68406;53.914;27.416;2023-07-09T12:37:24;987.6;;;39.7;14.7
79000;BME280;68406;53.914;27.416;2023-07-09T12:42:39;987.5;;;43.5;12.3
79000;BME280;68406;53.914;27.416;2023-07-09T12:48:03;987.5;;;39.3;14.5
79000;BME280;68406;53.914;27.416;2023-07-09T12:52:25;987.5;;;41;13.4
79000;BME280;68406;53.914;27.416;2023-07-09T12:57:17;987.4;;;43.5;11.8
79000;BME280;68406;53.914;27.416;2023-07-09T13:03:03;987.4;;;44.3;11.2
79000;BME280;68406;53.914;27.416;2023-07-09T13:07:49;987.4;;;42.6;12.5
79000;BME280;68406;53.914;27.416;2023-07-09T13:12:29;987.4;;;39.2;13.9
79000;BME280;68406;53.914;27.416;2023-07-09T13:17:17;987.4;;;42;11.9
79000;BME280;68406;53.914;27.416;2023-07-09T13:22:47;987.3;;;45.3;10.2
79000;BME280;68406;53.914;27.416;2023-07-09T13:27:17;987.4;;;46.9;9.1
79000;BME280;68406;53.914;27.416;2023-07-09T13:32:49;987.3;;;48.4;8.1
79000;BME280;68406;53.914;27.416;2023-07-09T13:37:41;987.2;;;49.4;7.4
79000;BME280;68406;53.914;27.416;2023-07-09T13:42:39;987.2;;;50.7;7.1
79000;BME280;68406;53.914;27.416;2023-07-09T13:47:31;987.2;;;47.4;9.1
79000;BME280;68406;53.914;27.416;2023-07-09T13:52:25;987.2;;;41.8;11.5
79000;BME280;68406;53.914;27.416;2023-07-09T13:57:18;987.1;;;43.1;10.6
79000;BME280;68406;53.914;27.416;2023-07-09T14:02:19;987.1;;;42.5;11.1
79000;BME280;68406;53.914;27.416;2023-07-09T14:07:40;987.1;;;39.1;13.3
79000;BME280;68406;53.914;27.416;2023-07-09T14:12:55;987.1;;;37.6;13.6
79000;BME280;68406;53.914;27.416;2023-07-09T14:17:47;987;;;41.4;11.5
79000;BME280;68406;53.914;27.416;2023-07-09T14:23:03;987.2;;;45.9;9.3
79000;BME280;68406;53.914;27.416;2023-07-09T14:27:39;987.2;;;48.5;8.2
79000;BME280;68406;53.914;27.416;2023-07-09T14:32:25;987.3;;;50;7.2
79000;BME280;68406;53.914;27.416;2023-07-09T14:37:17;987.3;;;50.3;6.9
79000;BME280;68406;53.914;27.416;2023-07-09T14:43:04;987.2;;;50.4;6.6
79000;BME280;68406;53.914;27.416;2023-07-09T14:47:31;987.3;;;50.9;6.3
79000;BME280;68406;53.914;27.416;2023-07-09T14:52:47;987.4;;;51.6;6
79000;BME280;68406;53.914;27.416;2023-07-09T14:58:08;987.4;;;52.4;5.7
79000;BME280;68406;53.914;27.416;2023-07-09T15:02:55;987.3;;;52.3;5.7
79000;BME280;68406;53.914;27.416;2023-07-09T15:07:17;987.4;;;51.7;5.8
79000;BME280;68406;53.914;27.416;2023-07-09T15:12:55;987.3;;;52.8;5.4
79000;BME280;68406;53.914;27.416;2023-07-09T15:18:08;987.4;;;52.7;5.2
79000;BME280;68406;53.914;27.416;2023-07-09T15:23:03;987.2;;;53.5;4.8
79000;BME280;68406;53.914;27.416;2023-07-09T15:28:01;987.3;;;53.5;4.7
79000;BME280;68406;53.914;27.416;2023-07-09T15:32:56;987.2;;;53.2;4.8
79000;BME280;68406;53.914;27.416;2023-07-09T15:37:17;987.2;;;54.5;4.6
79000;BME280;68406;53.914;27.416;2023-07-09T15:42:17;987.1;;;53.9;4.8
79000;BME280;68406;53.914;27.416;2023-07-09T15:47:55;987.2;;;54.4;4.7
79000;BME280;68406;53.914;27.416;2023-07-09T15:53:04;987.3;;;51.1;5.8
79000;BME280;68406;53.914;27.416;2023-07-09T15:57:47;987.2;;;48.1;7.2
79000;BME280;68406;53.914;27.416;2023-07-09T16:02:53;987.1;;;42.6;10.1
79000;BME280;68406;53.914;27.416;2023-07-09T16:08:03;987.1;;;40.8;11.4
79000;BME280;68406;53.914;27.416;2023-07-09T16:12:23;987.1;;;42.3;11
79000;BME280;68406;53.914;27.416;2023-07-09T16:17:31;987.1;;;45;9.8
79000;BME280;68406;53.914;27.416;2023-07-09T16:22:54;987.1;;;46;9.2
79000;BME280;68406;53.914;27.416;2023-07-09T16:28:07;987.1;;;46.6;8.9
79000;BME280;68406;53.914;27.416;2023-07-09T16:32:47;987.1;;;44.3;11.1
79000;BME280;68406;53.914;27.416;2023-07-09T16:37:57;987.1;;;41.5;11.9
79000;BME280;68406;53.914;27.416;2023-07-09T16:42:17;987.1;;;41.7;11.2
79000;BME280;68406;53.914;27.416;2023-07-09T16:47:18;987.1;;;40.8;12.9
79000;BME280;68406;53.914;27.416;2023-07-09T16:53:04;987.2;;;36.6;16.6
79000;BME280;68406;53.914;27.416;2023-07-09T16:57:39;987.3;;;32.6;19.9
79000;BME280;68406;53.914;27.416;2023-07-09T17:02:25;987.3;;;29.7;22.6
79000;BME280;68406;53.914;27.416;2023-07-09T17:07:59;987.4;;;27.8;25
79000;BME280;68406;53.914;27.416;2023-07-09T17:13:05;987.6;;;26.5;27.6
79000;BME280;68406;53.914;27.416;2023-07-09T17:17:19;988;;;25.4;30.5
79000;BME280;68406;53.914;27.416;2023-07-09T17:22:18;988.3;;;24.2;34.2
79000;BME280;68406;53.914;27.416;2023-07-09T17:27:47;988.4;;;23.2;37.9
79000;BME280;68406;53.914;27.416;2023-07-09T17:32:17;988.5;;;22.4;40.8
79000;BME280;68406;53.914;27.416;2023-07-09T17:37:31;988.4;;;22.5;40.3
79000;BME280;68406;53.914;27.416;2023-07-09T17:42:31;988.3;;;23.2;40.4
79000;BME280;68406;53.914;27.416;2023-07-09T17:48:04;988.2;;;23.2;42.6
79000;BME280;68406;53.914;27.416;2023-07-09T17:52:39;988.2;;;23.3;42.9
79000;BME280;68406;53.914;27.416;2023-07-09T17:57:25;988.1;;;23;44.8
79000;BME280;68406;53.914;27.416;2023-07-09T18:03:05;988.1;;;22.2;47.4
79000;BME280;68406;53.914;27.416;2023-07-09T18:07:47;988.1;;;22.1;46.6
79000;BME280;68406;53.914;27.416;2023-07-09T18:12:25;988;;;22.9;44.6
79000;BME280;68406;53.914;27.416;2023-07-09T18:17:18;988;;;22.5;46.5
79000;BME280;68406;53.914;27.416;2023-07-09T18:22:47;988;;;21.6;48.7
79000;BME280;68406;53.914;27.416;2023-07-09T18:27:18;988;;;21.1;48.9
79000;BME280;68406;53.914;27.416;2023-07-09T18:32:31;987.9;;;21.3;48
79000;BME280;68406;53.914;27.416;2023-07-09T18:38:04;987.9;;;21.3;48.5
79000;BME280;68406;53.914;27.416;2023-07-09T18:42:33;987.8;;;21;49.8
79000;BME280;68406;53.914;27.416;2023-07-09T18:47:47;987.9;;;20.3;51.7
79000;BME280;68406;53.914;27.416;2023-07-09T18:52:18;987.9;;;19.6;53.2
79000;BME280;68406;53.914;27.416;2023-07-09T18:57:17;987.9;;;19.1;54.8
79000;BME280;68406;53.914;27.416;2023-07-09T19:02:38;987.9;;;18.6;56.2
79000;BME280;68406;53.914;27.416;2023-07-09T19:08:16;987.9;;;18.3;57.1
79000;BME280;68406;53.914;27.416;2023-07-09T19:12:17;987.9;;;18.1;58.1
79000;BME280;68406;53.914;27.416;2023-07-09T19:17:47;987.8;;;17.9;58.6
79000;BME280;68406;53.914;27.416;2023-07-09T19:23:04;987.9;;;17.7;59.4
79000;BME280;68406;53.914;27.416;2023-07-09T19:27:53;988;;;17.6;59.7
79000;BME280;68406;53.914;27.416;2023-07-09T19:32:26;988;;;17.5;60.4
79000;BME280;68406;53.914;27.416;2023-07-09T19:37:55;988;;;17.4;60.7
79000;BME280;68406;53.914;27.416;2023-07-09T19:42:50;988;;;17.3;61.3
79000;BME280;68406;53.914;27.416;2023-07-09T19:48:03;988;;;17.2;62
79000;BME280;68406;53.914;27.416;2023-07-09T19:53:10;987.9;;;17.2;62.4
79000;BME280;68406;53.914;27.416;2023-07-09T19:58:03;987.9;;;17.1;62.7
79000;BME280;68406;53.914;27.416;2023-07-09T20:02:25;987.9;;;17;62.8
79000;BME280;68406;53.914;27.416;2023-07-09T20:07:25;988;;;17;62.7
79000;BME280;68406;53.914;27.416;2023-07-09T20:12:33;988;;;16.9;62.8
79000;BME280;68406;53.914;27.416;2023-07-09T20:18:05;988;;;16.9;63
79000;BME280;68406;53.914;27.416;2023-07-09T20:22:39;988;;;16.8;63.3
79000;BME280;68406;53.914;27.416;2023-07-09T20:27:53;988;;;16.8;63.6
79000;BME280;68406;53.914;27.416;2023-07-09T20:33:07;988;;;16.8;63.7
79000;BME280;68406;53.914;27.416;2023-07-09T20:37:23;988;;;16.8;63.9
79000;BME280;68406;53.914;27.416;2023-07-09T20:42:34;988;;;16.8;64.1
79000;BME280;68406;53.914;27.416;2023-07-09T20:47:39;987.9;;;16.8;64.5
79000;BME280;68406;53.914;27.416;2023-07-09T20:53:03;987.9;;;16.7;65
79000;BME280;68406;53.914;27.416;2023-07-09T20:57:47;987.8;;;16.7;65.4
79000;BME280;68406;53.914;27.416;2023-07-09T21:02:42;987.8;;;16.6;65.7
79000;BME280;68406;53.914;27.416;2023-07-09T21:07:17;987.8;;;16.5;66.1
79000;BME280;68406;53.914;27.416;2023-07-09T21:12:25;987.7;;;16.4;66.6
79000;BME280;68406;53.914;27.416;2023-07-09T21:18:06;987.8;;;16.4;66.8
79000;BME280;68406;53.914;27.416;2023-07-09T21:22:25;987.8;;;16.3;67.1
79000;BME280;68406;53.914;27.416;2023-07-09T21:27:31;987.8;;;16.2;67.7
79000;BME280;68406;53.914;27.416;2023-07-09T21:32:49;987.8;;;16.2;68.3
79000;BME280;68406;53.914;27.416;2023-07-09T21:38:08;987.8;;;16.1;68.5
79000;BME280;68406;53.914;27.416;2023-07-09T21:42:25;987.7;;;16;69.1
79000;BME280;68406;53.914;27.416;2023-07-09T21:47:39;987.7;;;16;69.6
79000;BME280;68406;53.914;27.416;2023-07-09T21:52:39;987.7;;;15.9;70
79000;BME280;68406;53.914;27.416;2023-07-09T21:57:18;987.7;;;15.8;70.3
79000;BME280;68406;53.914;27.416;2023-07-09T22:02:19;987.7;;;15.8;70.7
79000;BME280;68406;53.914;27.416;2023-07-09T22:07:39;987.7;;;15.7;70.7
79000;BME280;68406;53.914;27.416;2023-07-09T22:13:03;987.7;;;15.7;71
79000;BME280;68406;53.914;27.416;2023-07-09T22:17:18;987.7;;;15.6;70.9
79000;BME280;68406;53.914;27.416;2023-07-09T22:22:17;987.7;;;15.6;71.5
79000;BME280;68406;53.914;27.416;2023-07-09T22:28:04;987.7;;;15.5;71.5
79000;BME280;68406;53.914;27.416;2023-07-09T22:32:49;987.7;;;15.5;71.7
79000;BME280;68406;53.914;27.416;2023-07-09T22:37:44;987.8;;;15.4;71.9
79000;BME280;68406;53.914;27.416;2023-07-09T22:42:39;987.7;;;15.4;72
79000;BME280;68406;53.914;27.416;2023-07-09T22:47:48;987.8;;;15.4;71.9
79000;BME280;68406;53.914;27.416;2023-07-09T22:52:25;987.7;;;15.3;72.4
79000;BME280;68406;53.914;27.416;2023-07-09T22:57:41;987.7;;;15.3;72.5
79000;BME280;68406;53.914;27.416;2023-07-09T23:02:56;987.7;;;15.2;72.8
79000;BME280;68406;53.914;27.416;2023-07-09T23:07:48;987.7;;;15.2;73.1
79000;BME280;68406;53.914;27.416;2023-07-09T23:12:41;987.7;;;15.1;73.3
79000;BME280;68406;53.914;27.416;2023-07-09T23:17:25;987.7;;;15.1;73.7
79000;BME280;68406;53.914;27.416;2023-07-09T23:22:40;987.7;;;15;74
79000;BME280;68406;53.914;27.416;2023-07-09T23:27:25;987.7;;;14.9;74.3
79000;BME280;68406;53.914;27.416;2023-07-09T23:33:14;987.7;;;14.9;74.6
79000;BME280;68406;53.914;27.416;2023-07-09T23:37:31;987.7;;;14.8;74.7
79000;BME280;68406;53.914;27.416;2023-07-09T23:42:20;987.7;;;14.8;75.1
79000;BME280;68406;53.914;27.416;2023-07-09T23:48:05;987.8;;;14.8;75.3
79000;BME280;68406;53.914;27.416;2023-07-09T23:52:57;987.8;;;14.7;75.6
79000;BME280;68406;53.914;27.416;2023-07-09T23:57:47;987.8;;;14.7;75.8
